Latest Weather Observations for Coen Airport

IDQ60801

Issued at 9:02 pm EST Saturday 30 April 2016 (issued every 30 minutes, with the page automatically refreshed every 10 minutes)

About weather observations | Map of weather stations | Latest weather observations for QLD | Other Formats
Station Details ID: 027073 Name: COEN AIRPORT Lat: -13.76 Lon: 143.12 Height: 159.3 m
Data from the previous 72 hours. | See also: Recent months at Coen Airport
Date/Time
EST
Temp
°C
App
Temp
°C
Dew
Point
Rel
Hum
%
Delta-T
°C
Wind Press
QNH
hPa
Press
MSL
hPa
Rain
since 9 am
mm
Dir
 
Spd
km/h
Gust
km/h
Spd
kts
Gust
kts
30/09:00pm 26.2 28.9 22.1 78 2.8 ESE 11 15 6 8 1013.5 1012.6 0.2
30/08:30pm 26.0 30.3 21.9 78 2.8 E 2 7 1 4 1013.0 - 0.2
30/08:00pm 26.2 29.7 22.1 78 2.8 ESE 7 11 4 6 1012.5 - 0.2
30/07:30pm 26.0 29.3 21.9 78 2.8 SE 7 11 4 6 1012.3 - 0.2
30/07:00pm 26.4 31.1 22.0 77 3.0 CALM 0 6 0 3 1012.0 - 0.2
30/06:30pm 26.7 30.3 22.1 76 3.1 ENE 6 7 3 4 1011.6 - 0.2
30/06:00pm 27.3 31.0 22.5 75 3.3 ENE 7 11 4 6 1011.3 1010.4 0.2
30/05:30pm 27.8 30.4 22.7 74 3.5 ENE 13 20 7 11 1011.2 - 0.2
30/05:00pm 27.9 30.0 22.4 72 3.7 ENE 15 24 8 13 1011.2 - 0.2
30/04:30pm 29.3 32.1 23.7 72 3.9 ENE 15 22 8 12 1011.4 - 0.2
30/04:00pm 28.0 31.2 23.1 74 3.4 ENE 11 15 6 8 1011.5 - 0.2
30/03:30pm 30.1 31.8 23.0 65 4.9 ENE 19 32 10 17 1011.3 - 0.2
30/03:00pm 30.0 31.8 23.2 67 4.7 E 19 28 10 15 1011.2 1010.3 0.2
30/02:30pm 29.2 30.6 22.9 69 4.3 ENE 20 30 11 16 1011.7 - 0.2
30/02:00pm 30.8 33.4 24.9 71 4.2 ENE 20 35 11 19 1012.0 - 0.0
30/01:30pm 29.5 33.9 25.0 77 3.2 ENE 11 17 6 9 1012.6 - 0.0
30/01:00pm 26.8 27.1 21.5 72 3.5 ENE 22 41 12 22 1012.9 - 0.0
30/12:30pm 29.6 32.2 24.0 72 3.9 E 17 26 9 14 1013.4 - 0.0
30/12:00pm 29.9 33.1 24.3 72 3.9 ENE 15 22 8 12 1013.8 1012.9 0.0
30/11:30am 30.2 33.3 24.8 73 3.8 E 17 30 9 16 1014.2 - 0.0
30/11:00am 29.3 31.8 24.4 75 3.4 E 19 26 10 14 1014.4 - 0.0
30/10:30am 29.4 32.4 24.7 76 3.3 ENE 17 24 9 13 1014.6 - 0.0
30/10:00am 29.3 34.0 25.5 80 2.7 E 11 20 6 11 1014.8 - 0.0
30/09:30am 28.6 33.7 25.6 84 2.1 E 9 11 5 6 1014.8 - 0.0
30/09:00am 27.8 33.5 25.6 88 1.6 E 6 9 3 5 1014.7 1013.8 4.0
30/08:30am 26.1 31.9 24.5 91 1.1 NNE 2 7 1 4 1014.5 - 4.0
30/08:00am 25.2 30.9 23.8 92 1.0 CALM 0 0 0 0 1014.2 - 4.0
30/07:30am 24.6 30.1 23.4 93 0.8 CALM 0 6 0 3 1014.3 - 4.0
30/07:00am 24.0 28.4 22.8 93 0.8 SE 4 7 2 4 1014.0 - 4.0
30/06:30am 23.8 27.7 22.6 93 0.8 SSE 6 7 3 4 1013.9 - 4.0
30/06:00am 23.7 28.6 22.3 92 0.9 CALM 0 4 0 2 1013.5 1012.6 3.6
30/05:30am 23.8 27.3 22.2 91 1.1 SSW 7 9 4 5 1013.2 - 3.4
30/05:00am 23.9 27.6 22.3 91 1.1 NNE 6 11 3 6 1013.2 - 2.6
30/04:30am 24.0 27.6 22.3 90 1.1 S 7 13 4 7 1013.0 - 2.0
30/04:00am 24.0 27.6 22.1 89 1.3 NW 6 9 3 5 1012.5 - 2.0
30/03:30am 24.2 27.4 22.3 89 1.3 E 9 15 5 8 1012.7 - 2.0
30/03:00am 24.1 27.2 22.2 89 1.3 ENE 9 19 5 10 1012.9 1012.0 2.0
30/02:30am 24.3 28.0 22.2 88 1.4 ENE 6 9 3 5 1012.9 - 1.4
30/02:00am 24.4 28.0 22.3 88 1.4 NE 7 11 4 6 1013.0 - 1.4
30/01:30am 24.4 28.5 22.3 88 1.4 S 4 9 2 5 1013.0 - 1.4
30/01:00am 24.3 29.0 22.0 87 1.5 CALM 0 0 0 0 1013.2 - 1.4
30/12:30am 24.6 28.7 22.3 87 1.5 N 4 6 2 3 1013.6 - 1.4
30/12:00am 24.8 28.5 22.5 87 1.6 SE 7 9 4 5 1014.0 1013.1 1.4
 
Date/Time
EST
Temp
°C
App
Temp
°C
Dew
Point
Rel
Hum
%
Delta-T
°C
Wind Press
QNH
hPa
Press
MSL
hPa
Rain
since 9 am
mm
Dir
 
Spd
km/h
Gust
km/h
Spd
kts
Gust
kts
29/11:30pm 24.9 28.7 22.4 86 1.7 SSW 6 9 3 5 1014.3 - 1.4
29/11:00pm 25.0 28.6 22.1 84 1.9 NE 6 15 3 8 1014.3 - 1.2
29/10:30pm 25.4 29.0 22.3 83 2.1 E 7 13 4 7 1014.1 - 1.2
29/10:00pm 25.8 29.2 22.7 83 2.1 ESE 9 13 5 7 1014.3 - 1.2
29/09:30pm 26.1 30.0 23.0 83 2.1 E 7 15 4 8 1014.3 - 1.2
29/09:00pm 25.2 28.8 22.3 84 2.0 NNE 7 11 4 6 1014.2 1013.3 1.2
29/08:30pm 25.1 29.9 22.2 84 2.0 CALM 0 0 0 0 1013.9 - 1.2
29/08:00pm 25.5 29.3 22.4 83 2.1 ENE 6 9 3 5 1013.5 - 1.2
29/07:30pm 25.7 29.0 22.6 83 2.1 E 9 15 5 8 1013.2 - 1.2
29/07:00pm 25.0 28.6 22.1 84 1.9 E 6 7 3 4 1012.9 - 1.2
29/06:30pm 24.9 28.2 21.8 83 2.1 ENE 7 9 4 5 1012.5 - 1.2
29/06:00pm 26.0 29.3 22.5 81 2.4 NE 9 11 5 6 1012.3 1011.4 1.0
29/05:30pm 26.1 29.6 22.2 79 2.6 E 7 9 4 5 1011.8 - 1.0
29/05:00pm 27.7 30.6 23.1 76 3.2 ENE 13 19 7 10 1011.5 - 1.0
29/04:30pm 28.3 31.6 23.9 77 3.1 E 13 20 7 11 1011.4 - 1.0
29/04:00pm 27.3 30.5 23.1 78 2.9 E 11 17 6 9 1011.3 - 1.0
29/03:30pm 27.6 30.6 23.4 78 2.9 ESE 13 19 7 10 1011.2 - 1.0
29/03:00pm 27.3 31.8 24.0 82 2.3 SE 7 11 4 6 1011.2 1010.3 1.0
29/02:30pm 27.9 30.7 23.7 78 2.9 ESE 15 24 8 13 1011.3 - 1.0
29/02:00pm 27.3 30.3 23.3 79 2.7 E 13 22 7 12 1011.5 - 1.0
29/01:30pm 26.7 29.5 23.6 83 2.1 SE 15 20 8 11 1011.9 - 1.0
29/01:00pm 25.6 26.5 21.9 80 2.5 SE 20 28 11 15 1012.4 - 0.6
29/12:30pm 27.4 30.1 23.4 79 2.8 E 15 26 8 14 1012.5 - 0.2
29/12:00pm 26.3 28.1 22.6 80 2.5 ESE 17 28 9 15 1013.0 1012.1 0.2
29/11:30am 28.4 30.9 23.8 76 3.2 ESE 17 28 9 15 1013.4 - 0.0
29/11:00am 27.9 30.2 23.5 77 3.0 ESE 17 28 9 15 1013.8 - 0.0
29/10:30am 27.9 30.0 23.7 78 2.9 ESE 19 30 10 16 1014.1 - 0.0
29/10:00am 27.9 30.0 23.7 78 2.9 ESE 19 30 10 16 1014.3 - 0.0
29/09:30am 27.8 29.9 23.8 79 2.8 ESE 19 32 10 17 1014.2 - 0.0
29/09:00am 27.5 31.3 24.1 82 2.4 E 11 15 6 8 1013.7 1012.8 1.0
29/08:30am 26.3 29.6 23.8 86 1.7 ESE 13 19 7 10 1013.6 - 1.0
29/08:00am 25.6 28.7 23.5 88 1.4 SE 13 19 7 10 1013.4 - 1.0
29/07:30am 24.7 27.8 22.9 90 1.2 SSE 11 17 6 9 1013.1 - 1.0
29/07:00am 24.3 28.0 22.6 90 1.1 E 7 13 4 7 1012.9 - 1.0
29/06:30am 24.0 27.2 22.3 90 1.1 SSE 9 13 5 7 1012.7 - 1.0
29/06:00am 24.5 27.1 22.7 90 1.2 SSE 13 20 7 11 1012.3 1011.4 1.0
29/05:30am 24.0 27.2 22.3 90 1.1 SSE 9 13 5 7 1011.9 - 1.0
29/05:00am 24.1 27.0 22.4 90 1.1 SSE 11 15 6 8 1011.5 - 1.0
29/04:30am 24.3 27.5 22.4 89 1.3 SSE 9 13 5 7 1011.6 - 1.0
29/04:00am 24.3 27.5 22.4 89 1.3 S 9 11 5 6 1011.4 - 1.0
29/03:30am 24.3 27.5 22.4 89 1.3 SSE 9 13 5 7 1011.4 - 1.0
29/03:00am 24.3 26.8 22.4 89 1.3 SSE 13 19 7 10 1011.5 1010.6 1.0
29/02:30am 24.4 27.3 22.5 89 1.3 SSE 11 15 6 8 1011.8 - 1.0
29/02:00am 24.3 26.7 22.2 88 1.4 S 13 17 7 9 1011.8 - 1.0
29/01:30am 24.5 27.4 22.4 88 1.4 SSE 11 19 6 10 1012.2 - 1.0
29/01:00am 24.5 27.4 22.4 88 1.4 SE 11 15 6 8 1012.5 - 1.0
29/12:30am 24.6 27.5 22.5 88 1.4 SSE 11 13 6 7 1012.8 - 1.0
29/12:00am 24.6 27.5 22.5 88 1.4 SE 11 17 6 9 1013.1 1012.2 1.0
 
Date/Time
EST
Temp
°C
App
Temp
°C
Dew
Point
Rel
Hum
%
Delta-T
°C
Wind Press
QNH
hPa
Press
MSL
hPa
Rain
since 9 am
mm
Dir
 
Spd
km/h
Gust
km/h
Spd
kts
Gust
kts
28/11:30pm 24.5 27.4 22.4 88 1.4 SSE 11 15 6 8 1013.3 - 1.0
28/11:00pm 24.3 27.4 22.2 88 1.4 SSE 9 11 5 6 1013.3 - 1.0
28/10:30pm 24.4 27.6 22.3 88 1.4 S 9 13 5 7 1013.6 - 1.0
28/10:00pm 24.4 27.5 22.1 87 1.5 SSE 9 11 5 6 1013.4 - 0.8
28/09:30pm 24.7 27.8 22.2 86 1.7 SSE 9 11 5 6 1013.4 - 0.8
28/09:00pm 25.0 28.5 22.1 84 1.9 ESE 7 9 4 5 1013.1 1012.2 0.8
28/08:30pm 25.0 27.7 22.1 84 1.9 E 11 15 6 8 1012.9 - 0.8
28/08:00pm 24.8 28.3 22.1 85 1.8 ESE 7 13 4 7 1012.8 - 0.8
28/07:30pm 24.8 29.3 22.3 86 1.7 E 2 7 1 4 1012.3 - 0.8
28/07:00pm 24.5 29.1 21.8 85 1.8 CALM 0 0 0 0 1012.0 - 0.8
28/06:30pm 24.8 27.7 21.7 83 2.1 E 9 13 5 7 1011.8 - 0.4
28/06:00pm 25.0 28.3 21.9 83 2.1 NE 7 9 4 5 1011.4 1010.5 0.0
28/05:30pm 25.1 28.0 21.8 82 2.2 NE 9 13 5 7 1011.3 - 0.0
28/05:00pm 26.2 28.7 21.8 77 3.0 NE 11 17 6 9 1010.7 - 0.0
28/04:30pm 28.0 30.4 22.2 70 3.9 E 13 24 7 13 1010.4 - 0.0
28/04:00pm 27.8 30.6 22.3 72 3.7 E 11 17 6 9 1010.3 - 0.0
28/03:30pm 28.2 30.2 22.2 70 4.1 E 15 22 8 12 1010.2 - 0.0
28/03:00pm 29.3 30.5 22.5 67 4.6 SE 20 26 11 14 1010.0 1009.1 0.0
28/02:30pm 30.0 32.1 23.7 69 4.4 ESE 19 30 10 16 1010.1 - 0.0
28/02:00pm 28.4 29.7 22.4 70 4.1 ESE 19 32 10 17 1010.4 - 0.0
28/01:30pm 28.7 30.3 22.9 71 4.0 SSE 19 26 10 14 1010.7 - 0.0
28/01:00pm 29.2 30.8 23.2 70 4.1 ESE 20 28 11 15 1011.2 - 0.0
28/12:30pm 28.7 31.0 23.4 73 3.7 SE 17 24 9 13 1011.7 - 0.0
28/12:00pm 27.6 29.9 22.1 72 3.7 SSE 13 19 7 10 1011.9 1011.0 0.0
28/11:30am 28.1 30.1 22.3 70 3.9 SSE 15 22 8 12 1012.4 - 0.0
28/11:00am 28.3 29.6 22.3 70 4.1 SE 19 26 10 14 1012.8 - 0.0
28/10:30am 28.4 30.5 22.4 70 4.1 ESE 15 26 8 14 1012.8 - 0.0
28/10:00am 27.7 28.1 21.7 70 4.0 SE 22 30 12 16 1012.8 - 0.0
28/09:30am 28.3 29.5 22.5 71 4.0 SE 20 32 11 17 1012.5 - 0.0
28/09:00am 27.8 29.7 22.7 74 3.5 SE 17 24 9 13 1012.4 1011.5 0.0
28/08:30am 25.6 26.8 21.5 78 2.7 SE 17 20 9 11 1012.2 - 0.0
28/08:00am 25.1 26.7 21.4 80 2.5 S 15 19 8 10 1011.8 - 0.0
28/07:30am 24.3 26.7 20.8 81 2.3 S 9 13 5 7 1011.6 - 0.0
28/07:00am 23.4 25.9 20.3 83 2.0 S 7 13 4 7 1011.3 - 0.0
28/06:30am 22.9 24.8 19.7 82 2.1 S 9 11 5 6 1011.0 - 0.0
28/06:00am 23.1 25.1 19.9 82 2.1 S 9 13 5 7 1010.7 1009.8 0.0
28/05:30am 23.3 24.6 20.1 82 2.1 SSE 13 17 7 9 1010.7 - 0.0
28/05:00am 23.0 24.2 20.0 83 1.9 SSE 13 17 7 9 1010.4 - 0.0
28/04:30am 22.0 24.0 19.2 84 1.8 SSE 7 11 4 6 1010.3 - 0.0
28/04:00am 21.4 23.2 18.4 83 1.9 SSE 6 7 3 4 1010.4 - 0.0
28/03:30am 22.1 24.5 18.9 82 2.0 SSE 4 7 2 4 1010.6 - 0.0
28/03:00am 22.9 25.1 19.5 81 2.2 S 7 11 4 6 1011.0 1010.1 0.0
28/02:30am 23.2 25.2 20.0 82 2.1 S 9 13 5 7 1011.1 - 0.0
28/02:00am 22.7 24.8 19.3 81 2.2 SSE 7 11 4 6 1011.4 - 0.0
28/01:30am 23.2 25.1 19.8 81 2.2 S 9 11 5 6 1011.5 - 0.0
28/01:00am 23.2 26.0 19.6 80 2.3 SSE 4 7 2 4 1011.9 - 0.0
28/12:30am 23.5 25.7 19.6 79 2.5 SSE 7 15 4 8 1012.0 - 0.0
28/12:00am 23.9 25.1 20.0 79 2.5 SE 13 17 7 9 1012.3 1011.4 0.0
 
Date/Time
EST
Temp
°C
App
Temp
°C
Dew
Point
Rel
Hum
%
Delta-T
°C
Wind Press
QNH
hPa
Press
MSL
hPa
Rain
since 9 am
mm
Dir
 
Spd
km/h
Gust
km/h
Spd
kts
Gust
kts
27/11:30pm 24.0 25.8 20.3 80 2.4 SSE 11 15 6 8 1012.5 - 0.0
27/11:00pm 22.8 25.0 19.2 80 2.3 SE 6 9 3 5 1012.7 - 0.0
27/10:30pm 22.7 25.8 18.7 78 2.5 CALM 0 7 0 4 1012.6 - 0.0
27/10:00pm 23.9 26.7 19.6 77 2.8 S 4 6 2 3 1012.6 - 0.0
27/09:30pm 24.1 26.3 19.6 76 2.9 S 7 11 4 6 1012.7 - 0.0

Other Formats:

Comma delimited format used in spreadsheet applications
http://www.bom.gov.au/fwo/IDQ60801/IDQ60801.94183.axf

JavaScript Object Notation format (JSON) in row-major order
http://www.bom.gov.au/fwo/IDQ60801/IDQ60801.94183.json